Time;durP1;ratioP1;P1;durP2;ratioP2;P2;SDS_P1;SDS_P2;PMS_P1;PMS_P2;Temp;Humidity;BMP_temperature;BMP_pressure;BME280_temperature;BME280_humidity;BME280_pressure;Samples;Min_cycle;Max_cycle;Signal;HPM_P1;HPM_P2
2021/10/09 04:19:34;;;;;;;;;;;;;;;;;;;;;
2021/10/09 04:22:02;;;;;;;37.95;20.88;;;9.20;97.80;;;6.50;100.00;101838.22;5030806;28;20419;-89
2021/10/09 04:24:32;;;;;;;33.85;20.13;;;9.10;97.90;;;6.57;100.00;101833.19;5011951;28;20053;-89
2021/10/09 04:27:01;;;;;;;32.67;20.83;;;9.10;97.90;;;6.56;100.00;101837.69;5013198;28;20057;-87
2021/10/09 04:29:28;;;;;;;34.20;19.65;;;9.10;98.00;;;6.56;100.00;101829.59;5028755;22;20021;-89
2021/10/09 04:31:56;;;;;;;34.72;20.02;;;9.10;98.00;;;6.62;100.00;101826.38;5053221;28;20045;-90
2021/10/09 04:34:25;;;;;;;38.28;20.20;;;9.10;98.00;;;6.57;100.00;101825.06;5048506;28;20463;-90
2021/10/09 04:36:53;;;;;;;33.97;20.75;;;9.00;97.80;;;6.55;100.00;101832.41;5046691;28;20094;-91
2021/10/09 04:39:21;;;;;;;36.17;20.48;;;9.00;97.90;;;6.54;100.00;101838.81;5028063;28;20049;-90
2021/10/09 04:41:49;;;;;;;37.30;21.20;;;9.00;97.90;;;6.47;100.00;101833.03;5010619;28;20753;-91
2021/10/09 04:44:17;;;;;;;36.05;20.70;;;9.00;97.80;;;6.44;100.00;101825.19;5010636;28;20067;-90
2021/10/09 04:46:46;;;;;;;34.65;21.20;;;9.00;97.90;;;6.40;100.00;101826.44;5010731;28;20597;-90
2021/10/09 04:49:13;;;;;;;35.65;21.15;;;8.90;97.90;;;6.39;100.00;101828.25;5010010;28;20517;-91
2021/10/09 04:51:43;;;;;;;35.92;20.42;;;8.90;97.90;;;6.39;100.00;101824.72;5010479;28;20045;-92
2021/10/09 04:54:10;;;;;;;36.45;21.42;;;8.90;97.90;;;6.39;100.00;101830.13;5010611;28;20053;-90
2021/10/09 04:56:38;;;;;;;39.92;20.73;;;8.90;97.90;;;6.38;100.00;101828.41;5009972;28;20045;-91
2021/10/09 04:59:07;;;;;;;37.55;19.98;;;8.90;97.90;;;6.32;100.00;101828.88;5010112;28;20452;-92
2021/10/09 05:01:36;;;;;;;34.35;20.40;;;8.90;97.80;;;6.31;100.00;101827.19;5010242;28;20037;-90
2021/10/09 05:04:04;;;;;;;35.53;20.92;;;8.90;97.80;;;6.33;100.00;101825.22;5028182;28;20158;-90
2021/10/09 05:06:33;;;;;;;34.67;20.67;;;8.90;97.80;;;6.33;100.00;101825.22;5020543;28;20155;-89
2021/10/09 05:09:03;;;;;;;69.43;24.27;;;8.90;97.90;;;6.36;100.00;101820.41;5049638;28;20041;-90
2021/10/09 05:11:31;;;;;;;81.22;23.58;;;8.80;97.70;;;6.39;100.00;101827.41;5050235;28;20049;-91
2021/10/09 05:13:59;;;;;;;75.70;25.60;;;8.80;98.00;;;6.39;100.00;101822.84;5053308;28;20048;-90
2021/10/09 05:16:26;;;;;;;52.22;24.70;;;8.80;98.10;;;6.38;100.00;101818.44;5048377;28;20129;-89
2021/10/09 05:18:53;;;;;;;42.03;23.80;;;8.80;98.10;;;6.37;100.00;101827.53;5029896;28;20149;-88
2021/10/09 05:21:21;;;;;;;33.50;21.27;;;8.80;98.20;;;6.41;100.00;101820.88;5029735;28;20088;-90
2021/10/09 05:23:49;;;;;;;41.58;22.65;;;8.80;98.20;;;6.40;100.00;101823.72;5030034;28;20057;-89
2021/10/09 05:26:18;;;;;;;33.20;20.52;;;8.80;98.30;;;6.40;100.00;101821.03;5029932;28;20585;-88
2021/10/09 05:28:47;;;;;;;36.63;21.15;;;8.80;98.20;;;6.43;100.00;101827.03;5029704;28;20049;-91
2021/10/09 05:31:24;;;;;;;41.28;22.13;;;8.80;98.20;;;6.37;100.00;101823.97;5029689;28;20080;-90
2021/10/09 05:33:54;;;;;;;34.85;20.92;;;8.80;98.30;;;6.33;100.00;101825.22;5029751;28;20050;-87
2021/10/09 05:36:23;;;;;;;32.10;20.40;;;8.80;98.30;;;6.37;100.00;101826.69;5026689;28;20136;-92
2021/10/09 05:38:51;;;;;;;32.42;19.70;;;8.80;98.30;;;6.38;100.00;101831.97;5046943;28;20110;-86
2021/10/09 05:41:21;;;;;;;35.47;20.30;;;8.80;98.20;;;6.35;100.00;101823.25;5029320;28;20041;-86
2021/10/09 05:43:53;;;;;;;33.60;19.33;;;8.80;98.30;;;6.38;100.00;101828.41;5029120;28;20049;-86
2021/10/09 05:46:22;;;;;;;34.05;20.13;;;8.80;98.30;;;6.39;100.00;101830.97;5029759;28;20060;-86
2021/10/09 05:48:50;;;;;;;30.50;19.52;;;8.80;98.30;;;6.42;100.00;101828.03;5029483;28;20091;-86
2021/10/09 05:51:20;;;;;;;33.58;20.33;;;8.80;98.40;;;6.44;100.00;101834.16;5029795;28;20075;-86
2021/10/09 05:56:41;;;;;;;36.25;20.67;;;8.80;98.50;;;6.39;100.00;101840.94;5028757;28;20051;-86
2021/10/09 05:59:29;;;;;;;41.83;21.10;;;8.80;98.50;;;6.41;100.00;101844.38;5045876;28;20218;-87
2021/10/09 06:02:23;;;;;;;41.22;19.83;;;8.80;98.50;;;6.42;100.00;101849.66;5047637;28;20069;-87
2021/10/09 06:49:49;;;;;;;39.42;22.50;;;9.00;99.80;;;6.97;100.00;101871.31;4991916;28;20046;-89
2021/10/09 07:00:40;;;;;;;41.30;24.35;;;9.20;99.90;;;7.26;100.00;101878.00;5012633;28;20513;-87
2021/10/09 07:03:09;;;;;;;43.28;23.95;;;9.20;99.90;;;7.24;100.00;101886.22;5012541;28;20517;-86
2021/10/09 07:05:41;;;;;;;44.67;24.75;;;9.20;99.90;;;7.34;100.00;101881.75;5012611;28;20076;-87
2021/10/09 07:08:30;;;;;;;44.55;24.73;;;9.30;99.90;;;7.42;100.00;101879.28;5012309;28;20072;-85
2021/10/09 07:11:04;;;;;;;42.95;25.13;;;9.30;99.90;;;7.52;100.00;101883.88;5012322;28;20136;-86
2021/10/09 07:13:31;;;;;;;51.40;26.83;;;9.40;99.90;;;7.58;100.00;101884.22;5012132;28;20139;-86
2021/10/09 07:15:59;;;;;;;43.03;24.55;;;9.40;99.90;;;7.62;100.00;101884.81;5011964;28;20038;-84
2021/10/09 07:18:31;;;;;;;45.95;27.00;;;9.40;99.90;;;7.75;100.00;101890.91;5012317;28;20053;-91
2021/10/09 07:20:58;;;;;;;46.50;26.02;;;9.50;99.90;;;7.87;100.00;101885.44;5012216;28;20067;-86
2021/10/09 07:23:26;;;;;;;44.10;27.17;;;9.60;99.90;;;7.97;100.00;101883.63;5012377;28;20056;-88
2021/10/09 07:25:53;;;;;;;45.90;26.98;;;9.60;99.90;;;8.09;100.00;101887.09;5030239;28;20041;-90
2021/10/09 07:28:20;;;;;;;41.35;26.00;;;9.70;99.90;;;8.10;100.00;101891.53;5030182;28;20056;-88
2021/10/09 07:30:48;;;;;;;47.30;27.85;;;9.70;99.90;;;8.18;100.00;101887.16;5012262;28;20807;-88
2021/10/09 07:33:15;;;;;;;52.00;27.65;;;9.80;99.90;;;8.32;100.00;101894.09;5029913;28;20107;-86
2021/10/09 07:35:44;;;;;;;53.22;27.83;;;9.80;99.90;;;8.41;100.00;101889.69;5012034;28;20045;-81
2021/10/09 07:38:14;;;;;;;53.97;30.55;;;9.90;99.90;;;8.55;100.00;101897.50;5036583;28;20065;-83
2021/10/09 07:40:41;;;;;;;54.03;30.02;;;10.00;99.90;;;8.66;100.00;101906.50;5049570;28;20076;-83
2021/10/09 07:43:08;;;;;;;56.45;31.33;;;10.10;99.90;;;8.76;100.00;101902.00;5031331;28;20152;-83
2021/10/09 07:45:36;;;;;;;58.15;31.10;;;10.20;99.90;;;8.88;100.00;101903.59;5048081;28;20466;-83
2021/10/09 07:48:03;;;;;;;60.50;30.67;;;10.30;99.90;;;8.97;100.00;101908.19;5049020;28;20063;-83
2021/10/09 07:50:30;;;;;;;52.92;30.15;;;10.40;99.90;;;9.04;100.00;101913.91;5049430;28;20041;-83
2021/10/09 07:53:01;;;;;;;68.13;31.25;;;10.50;99.90;;;9.12;100.00;101913.19;5048445;28;20122;-82
2021/10/09 07:55:29;;;;;;;55.17;30.40;;;10.50;99.90;;;9.14;100.00;101916.66;5049016;28;20144;-82
2021/10/09 07:57:56;;;;;;;57.53;32.65;;;10.60;99.90;;;9.18;100.00;101908.06;5048803;28;20102;-86
2021/10/09 08:00:24;;;;;;;52.78;31.30;;;10.70;99.90;;;9.23;100.00;101904.91;5049004;28;20102;-82
2021/10/09 08:02:52;;;;;;;53.13;30.90;;;10.80;99.90;;;9.32;100.00;101903.22;5048911;28;20041;-83
2021/10/09 08:05:23;;;;;;;52.55;29.95;;;10.80;99.90;;;9.39;100.00;101905.22;5048873;28;20073;-81
2021/10/09 08:07:50;;;;;;;51.63;29.98;;;10.80;99.90;;;9.48;100.00;101906.25;5064460;28;20032;-82
2021/10/09 08:10:19;;;;;;;55.05;31.70;;;10.90;99.90;;;9.56;100.00;101902.81;5033646;28;20073;-83
2021/10/09 08:12:46;;;;;;;60.45;30.98;;;11.00;99.90;;;9.63;100.00;101906.63;5028668;28;20505;-82
2021/10/09 08:15:13;;;;;;;50.75;29.98;;;11.00;99.90;;;9.71;100.00;101903.19;5028736;28;20048;-83
2021/10/09 08:17:40;;;;;;;51.63;28.75;;;11.10;99.90;;;9.77;100.00;101898.06;5031202;28;20499;-82
2021/10/09 08:20:11;;;;;;;45.78;28.30;;;11.20;99.90;;;9.87;100.00;101906.19;5010966;28;20045;-82
2021/10/09 08:22:41;;;;;;;54.03;30.73;;;11.30;99.90;;;9.94;100.00;101903.75;5014723;28;20057;-82
2021/10/09 08:25:37;;;;;;;51.00;29.60;;;11.30;99.90;;;9.99;100.00;101901.44;5030454;28;20053;-82
2021/10/09 08:36:51;;;;;;;52.92;29.42;;;11.60;99.90;;;10.26;100.00;101913.38;4986692;28;20057;-83
2021/10/09 08:39:19;;;;;;;52.45;29.75;;;11.70;99.90;;;10.28;100.00;101905.94;5006934;28;20115;-82
2021/10/09 08:41:47;;;;;;;46.13;27.60;;;11.70;99.90;;;10.33;100.00;101911.81;5048328;28;20064;-82
2021/10/09 08:44:15;;;;;;;47.00;28.15;;;11.80;99.90;;;10.41;100.00;101913.81;5048013;28;20076;-83
2021/10/09 08:46:43;;;;;;;51.78;29.10;;;11.80;99.90;;;10.44;100.00;101913.53;5030360;28;20075;-82
2021/10/09 08:49:11;;;;;;;54.65;29.05;;;11.90;99.90;;;10.51;100.00;101917.38;5026625;28;20391;-82
2021/10/09 08:51:39;;;;;;;49.28;29.08;;;11.90;99.90;;;10.51;100.00;101917.38;5028187;28;20053;-82
2021/10/09 08:54:09;;;;;;;47.33;28.83;;;11.90;99.90;;;10.53;100.00;101918.91;5028036;28;20091;-83
2021/10/09 08:56:39;;;;;;;45.47;27.63;;;12.00;99.90;;;10.56;100.00;101918.59;5028449;28;20130;-84
2021/10/09 08:59:09;;;;;;;47.85;27.05;;;12.00;99.90;;;10.59;100.00;101913.88;5027795;28;20531;-83
2021/10/09 09:01:50;;;;;;;42.10;27.02;;;12.10;99.90;;;10.62;100.00;101913.56;5037852;28;20787;-83
2021/10/09 09:04:33;;;;;;;;;;;12.10;99.80;;;10.67;100.00;101906.66;5048491;28;20057;-83
2021/10/09 09:27:35;;;;;;;45.22;27.25;;;12.50;99.50;;;11.05;100.00;101904.72;5064093;28;20037;-82
2021/10/09 09:33:18;;;;;;;44.67;25.77;;;12.60;99.20;;;11.13;100.00;101907.53;5046447;28;20159;-82
2021/10/09 09:36:04;;;;;;;48.30;25.92;;;12.70;99.00;;;11.19;100.00;101897.88;5047977;28;20160;-82
2021/10/09 09:41:21;;;;;;;43.80;24.73;;;12.80;99.00;;;11.28;100.00;101888.78;5046650;28;20141;-82
2021/10/09 09:43:56;;;;;;;44.22;25.17;;;12.80;98.50;;;11.38;100.00;101893.31;5050381;28;20067;-82
2021/10/09 09:46:26;;;;;;;45.97;23.85;;;12.90;98.50;;;11.42;100.00;101891.97;5051805;28;20041;-81
2021/10/09 09:48:54;;;;;;;41.42;23.45;;;12.90;98.30;;;11.44;99.26;101884.50;5051386;28;20051;-82
2021/10/09 09:51:24;;;;;;;39.63;23.48;;;13.00;97.10;;;11.47;98.74;101887.78;5051843;28;20127;-81
2021/10/09 09:53:52;;;;;;;42.80;22.55;;;13.00;97.20;;;11.52;98.33;101884.59;5051703;28;20076;-82
2021/10/09 09:56:20;;;;;;;40.28;22.88;;;13.00;97.30;;;11.57;98.54;101895.84;5051483;28;20080;-82
2021/10/09 09:58:54;;;;;;;41.30;22.38;;;13.10;97.20;;;11.60;96.82;101881.91;5051386;28;20041;-82
2021/10/09 10:01:25;;;;;;;41.78;21.77;;;13.10;95.60;;;11.66;95.66;101886.75;5051435;28;20044;-82
2021/10/09 10:03:58;;;;;;;40.85;22.70;;;13.20;96.10;;;11.66;95.93;101892.19;5051597;28;20044;-82
2021/10/09 10:06:28;;;;;;;39.92;22.42;;;13.20;96.30;;;11.65;95.58;101885.03;5055293;28;20064;-82
2021/10/09 10:08:56;;;;;;;32.05;20.50;;;13.20;96.00;;;11.73;96.09;101893.28;5039474;28;20544;-81
2021/10/09 10:11:25;;;;;;;35.55;20.48;;;13.30;95.70;;;11.79;95.57;101890.94;5031551;28;20122;-82
2021/10/09 10:13:56;;;;;;;34.05;20.38;;;13.30;95.70;;;11.81;95.55;101883.44;5031434;28;20520;-81
2021/10/09 10:16:25;;;;;;;36.80;20.65;;;13.30;95.60;;;11.86;95.27;101890.16;5031316;28;20420;-82
2021/10/09 10:18:58;;;;;;;37.08;21.35;;;13.40;95.40;;;11.91;94.70;101878.78;5031015;28;20536;-81
2021/10/09 10:21:48;;;;;;;34.33;20.58;;;13.40;94.40;;;11.97;94.82;101877.28;5030934;28;20084;-82
2021/10/09 10:24:47;;;;;;;39.30;22.08;;;13.40;95.00;;;12.02;94.33;101889.44;5041367;28;20572;-81
2021/10/09 10:27:35;;;;;;;33.72;20.25;;;13.50;94.20;;;12.09;94.38;101882.31;5045042;28;20048;-82
2021/10/09 10:30:26;;;;;;;35.83;20.02;;;13.60;94.60;;;12.13;94.09;101883.69;5049193;22;20069;-79
2021/10/09 10:33:29;;;;;;;32.40;19.40;;;13.60;94.40;;;12.17;93.90;101886.13;5050915;28;20461;-80
2021/10/09 10:35:56;;;;;;;33.85;20.33;;;13.70;94.00;;;12.21;94.31;101884.78;5050742;28;20098;-81
2021/10/09 10:38:58;;;;;;;38.03;21.30;;;13.80;94.00;;;12.29;93.79;101884.81;5050329;28;20136;-81
2021/10/09 10:41:51;;;;;;;37.75;20.48;;;13.80;93.60;;;12.34;93.97;101879.72;5034539;28;20073;-79
2021/10/09 10:45:02;;;;;;;34.67;20.50;;;13.90;93.90;;;12.40;94.03;101886.41;5030617;28;20053;-80
2021/10/09 10:47:51;;;;;;;38.63;22.13;;;13.90;93.90;;;12.43;93.78;101889.69;5020190;28;20041;-79
2021/10/09 10:54:16;;;;;;;34.65;20.05;;;14.00;93.00;;;12.57;93.60;101880.00;5009609;28;20120;-79
2021/10/09 10:57:18;;;;;;;35.72;19.52;;;14.10;93.60;;;12.60;92.86;101878.81;5010495;28;20061;-80
2021/10/09 10:59:55;;;;;;;30.55;18.95;;;14.10;92.70;;;12.63;92.14;101873.03;5010506;28;20046;-80
2021/10/09 11:02:27;;;;;;;34.30;18.77;;;14.20;92.70;;;12.64;91.06;101872.88;5009210;28;20045;-80
2021/10/09 11:05:00;;;;;;;37.25;20.27;;;14.20;91.60;;;12.63;91.49;101867.56;5011248;28;20045;-80
2021/10/09 11:07:30;;;;;;;32.90;19.15;;;14.20;91.80;;;12.64;90.43;101864.69;5029332;28;20037;-80
2021/10/09 11:10:11;;;;;;;36.70;20.80;;;14.20;90.50;;;12.67;90.47;101863.47;5026152;28;20042;-80
2021/10/09 11:12:40;;;;;;;32.75;19.45;;;14.30;91.10;;;12.71;89.49;101860.25;5022733;28;20045;-80
2021/10/09 11:15:19;;;;;;;31.98;19.70;;;14.30;91.20;;;12.78;90.49;101860.44;5010748;28;20070;-81
2021/10/09 11:17:50;;;;;;;39.70;21.00;;;14.30;91.50;;;12.83;90.95;101865.41;5012238;28;20065;-81
2021/10/09 11:20:26;;;;;;;35.55;21.08;;;14.40;91.50;;;12.83;90.91;101857.19;5015341;28;20124;-81
2021/10/09 11:22:55;;;;;;;32.92;19.83;;;14.40;91.00;;;12.84;90.26;101862.50;5020664;28;20123;-81
2021/10/09 11:25:28;;;;;;;33.22;19.90;;;14.50;91.10;;;12.88;89.92;101863.88;5010330;28;20069;-87
2021/10/09 11:27:57;;;;;;;32.83;20.10;;;14.50;90.00;;;12.93;90.05;101868.88;5026599;28;20055;-84
2021/10/09 11:30:24;;;;;;;41.83;19.83;;;14.50;90.60;;;13.07;88.43;101864.63;5029044;28;20045;-82
2021/10/09 11:32:55;;;;;;;31.00;18.40;;;14.60;89.90;;;13.11;88.20;101855.91;5029087;28;20124;-82
2021/10/09 11:35:35;;;;;;;37.85;18.38;;;14.60;89.50;;;13.10;87.46;101854.22;5014649;28;20092;-82
2021/10/09 11:38:05;;;;;;;25.10;15.80;;;14.70;89.20;;;13.12;86.99;101856.78;5016625;28;20044;-82
2021/10/09 11:40:41;;;;;;;29.20;16.02;;;14.70;89.00;;;13.14;86.35;101853.88;5029726;28;20041;-82
2021/10/09 11:43:16;;;;;;;28.25;16.35;;;14.70;88.70;;;13.16;87.13;101854.56;5028940;28;20045;-82
2021/10/09 11:45:56;;;;;;;27.75;15.30;;;14.80;88.50;;;13.20;86.58;101843.09;5026394;28;20046;-81
2021/10/09 11:54:02;;;;;;;28.20;17.17;;;14.90;88.80;;;13.34;87.65;101838.88;5027465;28;20033;-81
2021/10/09 11:56:30;;;;;;;37.67;17.80;;;15.00;88.80;;;13.43;88.33;101842.47;5029484;28;20056;-81
2021/10/09 11:58:59;;;;;;;29.88;16.85;;;15.00;89.00;;;13.45;87.12;101845.88;5029077;28;20038;-81
2021/10/09 12:01:36;;;;;;;31.42;16.10;;;15.10;88.60;;;13.47;86.38;101830.16;5029263;28;20049;-81
2021/10/09 12:04:22;;;;;;;30.50;15.05;;;15.10;88.40;;;13.47;83.96;101838.38;5029465;28;20038;-81
2021/10/09 12:06:54;;;;;;;27.10;16.05;;;15.10;86.20;;;13.47;84.96;101832.91;5043707;28;20096;-81
2021/10/09 12:09:39;;;;;;;27.40;15.65;;;15.10;86.70;;;13.49;85.33;101831.69;5029441;28;20539;-81
2021/10/09 12:12:18;;;;;;;27.38;15.23;;;15.10;87.00;;;13.48;85.37;101824.53;5035327;28;20051;-81
2021/10/09 12:14:46;;;;;;;29.52;16.35;;;15.20;87.10;;;13.52;85.01;101822.31;5046960;28;20057;-81
2021/10/09 12:17:14;;;;;;;29.30;15.73;;;15.20;87.20;;;13.54;85.62;101822.97;5038084;28;20048;-81
2021/10/09 12:19:41;;;;;;;23.98;14.63;;;15.20;87.20;;;13.55;84.57;101830.16;5020713;28;20082;-81
2021/10/09 12:22:11;;;;;;;26.20;15.40;;;15.20;86.30;;;13.56;83.97;101823.66;5016710;28;20115;-81
2021/10/09 12:24:49;;;;;;;28.70;15.43;;;15.30;86.30;;;13.55;84.46;101830.16;5030474;28;20049;-81
2021/10/09 12:27:20;;;;;;;27.92;14.93;;;15.30;86.40;;;13.57;82.77;101816.31;5022875;28;20045;-81
2021/10/09 12:30:00;;;;;;;24.02;14.43;;;15.30;85.60;;;13.62;81.92;101817.50;5008847;28;20069;-81
2021/10/09 12:32:29;;;;;;;27.95;15.48;;;15.30;85.10;;;13.68;81.73;101816.78;5031720;28;20055;-81
2021/10/09 12:35:11;;;;;;;23.38;14.50;;;15.30;85.00;;;13.73;81.87;101809.94;5043124;28;20051;-82
2021/10/09 12:37:39;;;;;;;24.77;14.40;;;15.40;84.80;;;13.77;82.44;101808.59;5034365;28;20052;-80
2021/10/09 12:40:15;;;;;;;26.23;14.70;;;15.40;84.90;;;13.79;82.14;101809.28;5009003;28;20042;-88
2021/10/09 12:42:46;;;;;;;28.42;14.38;;;15.50;85.00;;;13.81;81.58;101810.81;5009078;28;20056;-81
2021/10/09 12:45:14;;;;;;;25.40;14.02;;;15.50;84.30;;;13.84;81.44;101807.72;5008958;28;20095;-81
2021/10/09 12:47:43;;;;;;;24.48;14.15;;;15.50;84.20;;;13.89;82.75;101802.56;5008672;28;20065;-82
2021/10/09 12:50:11;;;;;;;23.40;14.27;;;15.60;85.10;;;13.90;83.08;101789.75;5008901;28;20145;-82
2021/10/09 12:52:38;;;;;;;23.83;13.45;;;15.60;85.10;;;13.94;80.93;101796.59;5008225;28;20585;-85
2021/10/09 12:55:07;;;;;;;22.98;13.25;;;15.60;83.70;;;13.93;81.09;101796.75;5025857;28;20045;-82
2021/10/09 12:57:36;;;;;;;22.65;13.05;;;15.70;84.10;;;13.94;80.02;101795.75;5039559;28;20039;-82
2021/10/09 13:00:07;;;;;;;26.70;16.45;;;15.70;83.80;;;13.98;80.09;101789.72;5041150;28;20052;-83
2021/10/09 13:02:34;;;;;;;23.33;14.20;;;15.70;83.30;;;13.99;81.05;101794.19;5041207;28;20041;-82
2021/10/09 13:05:01;;;;;;;24.92;13.10;;;15.70;83.80;;;13.98;79.42;101786.97;5048182;28;20342;-82
2021/10/09 13:07:29;;;;;;;24.48;14.45;;;15.70;83.00;;;13.99;78.03;101783.22;5035327;28;20038;-83
2021/10/09 13:09:56;;;;;;;27.00;13.50;;;15.70;82.30;;;14.00;79.40;101784.94;5028157;28;20049;-83
2021/10/09 13:12:23;;;;;;;27.15;15.20;;;15.70;82.60;;;14.03;79.00;101781.84;5028351;28;20064;-81
2021/10/09 13:14:51;;;;;;;24.90;14.45;;;15.70;82.70;;;14.05;79.72;101778.91;5028243;28;20042;-82
2021/10/09 13:17:19;;;;;;;24.42;14.65;;;15.80;82.80;;;14.06;80.67;101778.75;5027853;28;20045;-82
2021/10/09 13:19:46;;;;;;;24.23;13.23;;;15.80;83.20;;;14.06;80.92;101773.25;5027869;28;20103;-81
2021/10/09 13:22:14;;;;;;;23.65;13.88;;;15.80;83.30;;;14.06;81.36;101778.75;5021618;28;20398;-84
2021/10/09 13:24:41;;;;;;;23.23;13.38;;;15.80;83.50;;;14.14;80.37;101779.75;5008493;28;20493;-81
2021/10/09 13:27:08;;;;;;;25.58;13.45;;;15.90;83.20;;;14.12;79.63;101776.34;5014809;28;20121;-80
2021/10/09 13:29:36;;;;;;;22.92;12.70;;;15.90;82.80;;;14.07;80.20;101774.97;5027588;28;20476;-81
2021/10/09 13:32:04;;;;;;;29.02;13.43;;;15.80;82.60;;;14.09;80.34;101774.81;5028161;28;20073;-80
2021/10/09 13:34:33;;;;;;;25.13;12.98;;;15.90;83.00;;;14.08;78.91;101782.16;5019043;28;20049;-80
2021/10/09 13:37:00;;;;;;;23.38;13.73;;;15.90;82.20;;;14.11;79.26;101777.34;5019164;28;20440;-81
2021/10/09 13:39:28;;;;;;;22.88;13.02;;;15.90;82.30;;;14.10;79.40;101781.97;5013194;28;20278;-81
2021/10/09 13:41:55;;;;;;;22.70;13.50;;;15.90;82.50;;;14.10;79.61;101775.66;5021128;28;20041;-82
2021/10/09 13:44:22;;;;;;;31.30;12.55;;;15.90;82.40;;;14.13;78.22;101784.38;5011259;28;20064;-81
2021/10/09 13:46:49;;;;;;;21.15;12.55;;;15.90;81.60;;;14.16;78.13;101774.94;5018033;28;20340;-82
2021/10/09 13:49:17;;;;;;;24.13;11.77;;;15.90;81.60;;;14.12;78.50;101770.84;5017002;28;20041;-82
2021/10/09 13:51:45;;;;;;;19.92;12.45;;;15.90;81.60;;;14.19;76.86;101772.72;5008080;28;20117;-82
2021/10/09 13:54:13;;;;;;;27.80;12.55;;;15.90;80.20;;;14.22;77.15;101769.63;5017671;28;20077;-82
2021/10/09 13:56:40;;;;;;;27.88;12.23;;;16.00;80.70;;;14.22;76.50;101766.88;5017002;28;20049;-82
2021/10/09 13:59:07;;;;;;;22.17;11.13;;;16.00;80.50;;;14.28;76.82;101770.78;5016624;28;20144;-82
2021/10/09 14:01:34;;;;;;;24.35;11.68;;;16.00;80.70;;;14.25;77.95;101762.94;5014186;28;20661;-82
2021/10/09 14:04:02;;;;;;;23.00;11.95;;;16.10;81.20;;;14.22;77.82;101761.41;5022380;28;20501;-81
2021/10/09 14:06:30;;;;;;;25.52;12.43;;;16.10;81.10;;;14.23;76.37;101756.78;5018445;28;20132;-82
2021/10/09 14:08:58;;;;;;;21.42;12.05;;;16.10;80.20;;;14.24;77.96;101758.47;5015327;28;20125;-82
2021/10/09 14:11:26;;;;;;;23.83;13.98;;;16.10;81.00;;;14.26;76.98;101756.44;5017625;28;20045;-82
2021/10/09 14:13:53;;;;;;;24.60;12.75;;;16.10;80.00;;;14.23;76.59;101767.72;5018340;28;20120;-82
2021/10/09 14:16:20;;;;;;;24.77;13.48;;;16.00;80.00;;;14.23;76.26;101756.78;5012167;28;20152;-82
2021/10/09 14:18:48;;;;;;;23.95;14.10;;;16.00;79.80;;;14.22;76.38;101763.28;5012402;28;20038;-82
2021/10/09 14:21:15;;;;;;;31.02;13.73;;;16.00;79.60;;;14.24;76.45;101753.00;5020881;28;20164;-83
2021/10/09 14:23:44;;;;;;;21.67;13.95;;;16.10;79.60;;;14.20;77.20;101748.91;5021022;28;20148;-85
2021/10/09 14:26:13;;;;;;;25.48;13.48;;;16.00;80.40;;;14.19;77.88;101750.81;5025138;28;20111;-81
2021/10/09 14:28:40;;;;;;;22.38;12.88;;;16.00;80.60;;;14.23;77.39;101746.66;5019367;28;20044;-81
2021/10/09 14:31:07;;;;;;;23.10;12.90;;;16.10;80.60;;;14.24;77.26;101747.50;5013168;28;20563;-80
2021/10/09 14:33:35;;;;;;;24.55;13.85;;;16.10;80.20;;;14.23;77.01;101745.81;5018365;28;20042;-80
2021/10/09 14:36:03;;;;;;;24.95;12.02;;;16.10;79.80;;;14.22;76.82;101741.38;5025187;28;20045;-80
2021/10/09 14:38:30;;;;;;;24.48;13.43;;;16.10;80.20;;;14.22;77.08;101744.09;5028990;28;20041;-80
2021/10/09 14:40:59;;;;;;;27.02;13.60;;;16.10;80.30;;;14.24;77.88;101736.56;5032218;28;20084;-80
2021/10/09 14:43:28;;;;;;;21.30;13.13;;;16.10;80.70;;;14.19;77.32;101739.84;5014351;28;20060;-80
2021/10/09 14:46:03;;;;;;;22.42;12.85;;;16.10;80.40;;;14.20;77.40;101735.22;5016067;28;20095;-80
2021/10/09 14:48:34;;;;;;;27.30;12.77;;;16.10;80.20;;;14.21;76.68;101731.47;5017799;28;20426;-80
2021/10/09 14:51:18;;;;;;;;;;;16.10;79.90;;;14.21;76.74;101731.47;5028700;28;20572;-83
2021/10/09 15:18:42;;;;;;;20.02;11.52;;;16.10;80.60;;;14.11;77.79;101723.47;5017847;28;20042;-82
2021/10/09 15:21:09;;;;;;;22.35;12.50;;;16.10;80.50;;;14.12;78.00;101724.31;5020206;28;20047;-82
2021/10/09 15:23:37;;;;;;;25.60;12.20;;;16.10;80.60;;;14.04;79.49;101726.06;5017007;28;20619;-82
2021/10/09 15:26:04;;;;;;;23.52;12.68;;;16.00;81.10;;;14.08;77.62;101716.44;5018635;28;20149;-82
2021/10/09 15:28:31;;;;;;;25.13;13.02;;;16.00;80.50;;;14.07;78.58;101717.50;5025447;28;20041;-82
2021/10/09 15:31:00;;;;;;;22.67;12.93;;;16.00;80.70;;;14.06;78.99;101720.41;5020249;28;20125;-82
2021/10/09 15:33:27;;;;;;;25.52;11.48;;;16.00;80.80;;;14.03;78.21;101723.50;5029989;28;20077;-82
2021/10/09 15:35:54;;;;;;;21.42;11.43;;;16.00;80.90;;;14.11;77.61;101725.34;5029856;28;20053;-82
2021/10/09 15:38:21;;;;;;;24.75;10.63;;;16.00;80.40;;;14.04;78.82;101719.72;5028535;28;20042;-82
2021/10/09 15:40:49;;;;;;;18.35;10.05;;;16.00;81.00;;;13.95;80.32;101718.91;5029531;28;20045;-82
2021/10/09 15:43:16;;;;;;;24.10;11.23;;;16.00;81.40;;;13.92;80.95;101723.88;5029905;28;20099;-82
2021/10/09 15:45:43;;;;;;;23.23;11.57;;;15.90;81.40;;;13.89;79.58;101727.81;5029792;28;20067;-82
2021/10/09 15:48:12;;;;;;;28.38;12.45;;;15.90;81.30;;;13.88;79.73;101721.50;5029405;28;20048;-82
2021/10/09 15:50:40;;;;;;;25.42;12.55;;;15.90;81.10;;;13.88;80.80;101721.50;5029685;28;20810;-83
2021/10/09 15:53:12;;;;;;;21.65;11.65;;;15.90;81.70;;;13.81;82.58;101719.66;5029902;28;20096;-88
2021/10/09 15:55:39;;;;;;;22.92;11.45;;;15.90;81.90;;;13.72;83.57;101715.22;5028502;28;20050;-83
2021/10/09 15:58:07;;;;;;;21.20;11.23;;;15.90;82.60;;;13.64;84.94;101716.97;5029199;28;20140;-83
2021/10/09 16:00:34;;;;;;;20.52;11.68;;;15.80;82.60;;;13.56;86.02;101722.47;5021699;28;20068;-86
2021/10/09 16:03:01;;;;;;;19.15;10.70;;;15.80;83.20;;;13.48;86.27;101717.03;5022241;28;20498;-85
2021/10/09 16:05:30;;;;;;;20.45;11.02;;;15.80;83.20;;;13.44;87.32;101721.97;5012392;28;20129;-83
2021/10/09 16:07:57;;;;;;;22.30;11.98;;;15.70;83.80;;;13.39;87.45;101715.31;5022955;28;20065;-83
2021/10/09 16:10:25;;;;;;;21.60;11.43;;;15.70;84.00;;;13.28;88.04;101719.22;5027274;28;20052;-84
2021/10/09 16:12:52;;;;;;;20.10;12.25;;;15.70;84.20;;;13.27;87.98;101718.38;5020047;28;20076;-84
2021/10/09 16:15:19;;;;;;;21.10;12.38;;;15.60;84.40;;;13.30;88.50;101718.06;5026160;28;20045;-85
2021/10/09 16:17:47;;;;;;;19.88;11.32;;;15.60;84.40;;;13.26;88.91;101715.81;5028860;28;20045;-84
2021/10/09 16:20:14;;;;;;;22.20;12.73;;;15.60;85.00;;;13.23;88.70;101714.28;5036066;28;20476;-84
2021/10/09 16:22:43;;;;;;;19.38;11.65;;;15.50;85.00;;;13.16;89.99;101715.16;5027287;28;20107;-84
2021/10/09 16:25:10;;;;;;;22.02;12.00;;;15.50;85.50;;;13.09;90.65;101720.44;5023101;28;20100;-84
2021/10/09 16:27:37;;;;;;;19.23;11.52;;;15.40;85.60;;;13.09;89.25;101721.28;5019495;28;20046;-84
2021/10/09 16:32:39;;;;;;;21.48;11.70;;;15.40;85.90;;;12.97;90.08;101730.88;5036994;28;20057;-84
2021/10/09 16:35:07;;;;;;;18.65;11.80;;;15.30;86.10;;;13.01;88.53;101728.66;5048368;28;20110;-87
2021/10/09 16:37:34;;;;;;;25.15;12.80;;;15.30;85.90;;;13.04;89.49;101736.50;5048673;28;20131;-87
2021/10/09 16:40:04;;;;;;;19.30;12.60;;;15.30;86.00;;;12.93;89.72;101725.91;5046065;28;20049;-87
2021/10/09 16:42:41;;;;;;;18.73;11.40;;;15.30;86.30;;;12.91;89.39;101724.22;5046928;28;20123;-86
2021/10/09 16:45:10;;;;;;;24.20;12.02;;;15.20;86.30;;;12.89;88.53;101729.00;5045809;28;20196;-86